createdAt,value
2022-12-11T00:00:37.207Z,99845.59
2022-12-11T00:03:05.051Z,99850.19
2022-12-11T00:05:32.814Z,99842.44
2022-12-11T00:08:00.737Z,99840.94
2022-12-11T00:10:30.238Z,99843.88
2022-12-11T00:13:00.001Z,99844.91
2022-12-11T00:15:27.861Z,99839.47
2022-12-11T00:17:55.630Z,99839.66
2022-12-11T00:20:23.496Z,99840.91
2022-12-11T00:22:51.503Z,99835.03
2022-12-11T00:25:19.306Z,99832.28
2022-12-11T00:27:47.113Z,99834.19
2022-12-11T00:30:14.871Z,99840.47
2022-12-11T00:32:44.119Z,99841.50
2022-12-11T00:35:12.526Z,99833.72
2022-12-11T00:37:40.826Z,99832.25
2022-12-11T00:40:08.669Z,99837.03
2022-12-11T00:42:36.639Z,99837.69
2022-12-11T00:45:04.460Z,99848.41
2022-12-11T00:47:32.496Z,99841.47
2022-12-11T00:50:00.586Z,99845.44
2022-12-11T00:52:28.515Z,99842.88
2022-12-11T00:54:56.314Z,99840.16
2022-12-11T00:57:24.302Z,99846.44
2022-12-11T00:59:52.054Z,99844.59
2022-12-11T01:02:20.067Z,99838.50
2022-12-11T01:04:47.806Z,99844.97
2022-12-11T01:07:15.650Z,99838.88
2022-12-11T01:10:00.922Z,99845.16
2022-12-11T01:12:28.771Z,99841.97
2022-12-11T01:14:56.525Z,99845.34
2022-12-11T01:17:24.273Z,99847.03
2022-12-11T01:19:52.013Z,99853.50
2022-12-11T01:22:19.801Z,99854.56
2022-12-11T01:24:47.615Z,99848.91
2022-12-11T01:27:15.349Z,99854.34
2022-12-11T01:29:43.157Z,99854.56
2022-12-11T01:32:10.919Z,99856.44
2022-12-11T01:34:39.243Z,99854.09
2022-12-11T01:37:07.085Z,99850.53
2022-12-11T01:39:34.798Z,99851.59
2022-12-11T01:42:02.695Z,99852.63
2022-12-11T01:44:30.436Z,99852.63
2022-12-11T01:46:58.488Z,99854.50
2022-12-11T01:49:26.265Z,99859.28
2022-12-11T01:51:54.048Z,99867.69
2022-12-11T01:54:21.893Z,99864.31
2022-12-11T01:56:49.692Z,99864.31
2022-12-11T01:59:24.074Z,99869.97
2022-12-11T02:01:52.219Z,99863.88
2022-12-11T02:04:20.232Z,99852.16
2022-12-11T02:06:47.961Z,99858.59
2022-12-11T02:09:15.758Z,99856.94
2022-12-11T02:11:43.604Z,99859.66
2022-12-11T02:14:11.381Z,99859.84
2022-12-11T02:16:39.198Z,99854.81
2022-12-11T02:19:07.004Z,99855.63
2022-12-11T02:21:34.922Z,99854.81
2022-12-11T02:24:02.753Z,99859.41
2022-12-11T02:26:30.509Z,99857.53
2022-12-11T02:28:58.256Z,99849.34
2022-12-11T02:31:26.070Z,99853.97
2022-12-11T02:33:53.952Z,99858.34
2022-12-11T02:36:21.748Z,99855.84
2022-12-11T02:38:50.745Z,99849.75
2022-12-11T02:41:18.513Z,99851.63
2022-12-11T02:43:46.291Z,99852.66
2022-12-11T02:46:14.099Z,99849.94
2022-12-11T02:48:41.935Z,99851.00
2022-12-11T02:51:10.071Z,99854.38
2022-12-11T02:53:37.866Z,99835.94
2022-12-11T02:56:05.710Z,99848.91
2022-12-11T02:58:33.607Z,99855.38
2022-12-11T03:01:01.538Z,99849.94
2022-12-11T03:03:29.351Z,99851.00
2022-12-11T03:05:57.202Z,99850.16
2022-12-11T03:08:25.013Z,99850.53
2022-12-11T03:10:52.792Z,99848.84
2022-12-11T03:13:20.535Z,99851.31
2022-12-11T03:15:48.334Z,99843.38
2022-12-11T03:18:16.228Z,99848.16
2022-12-11T03:20:44.172Z,99849.38
2022-12-11T03:23:11.935Z,99841.41
2022-12-11T03:25:39.683Z,99835.97
2022-12-11T03:28:07.485Z,99839.91
2022-12-11T03:30:36.615Z,99833.63
2022-12-11T03:33:04.584Z,99828.19
2022-12-11T03:35:33.002Z,99824.41
2022-12-11T03:38:00.761Z,99833.63
2022-12-11T03:40:28.898Z,99824.41
2022-12-11T03:42:56.648Z,99837.19
2022-12-11T03:45:24.421Z,99837.19
2022-12-11T03:47:52.184Z,99837.19
2022-12-11T03:50:19.955Z,99839.72
2022-12-11T03:52:47.795Z,99833.47
2022-12-11T03:55:15.859Z,99834.28
2022-12-11T03:57:43.645Z,99834.94
2022-12-11T04:00:11.536Z,99837.00
2022-12-11T04:02:39.274Z,99829.88
2022-12-11T04:05:07.053Z,99835.31
2022-12-11T04:07:34.854Z,99839.72
2022-12-11T04:10:02.591Z,99840.75
2022-12-11T04:12:30.328Z,99844.53
2022-12-11T04:15:03.294Z,99840.75
2022-12-11T04:17:47.671Z,99834.47
2022-12-11T04:20:47.436Z,99828.19
2022-12-11T04:23:32.940Z,99827.53
2022-12-11T04:26:00.864Z,99833.19
2022-12-11T04:28:28.698Z,99840.13
2022-12-11T04:30:56.465Z,99842.84
2022-12-11T04:33:24.280Z,99835.72
2022-12-11T04:35:52.039Z,99839.47
2022-12-11T04:38:19.833Z,99836.75
2022-12-11T04:40:47.560Z,99833.63
2022-12-11T04:43:15.348Z,99832.34
2022-12-11T04:45:43.133Z,99835.72
2022-12-11T04:48:10.972Z,99838.66
2022-12-11T04:50:38.891Z,99841.53
2022-12-11T04:53:06.678Z,99827.28
2022-12-11T04:55:34.426Z,99832.72
2022-12-11T04:58:02.347Z,99829.16
2022-12-11T05:00:30.108Z,99829.34
2022-12-11T05:02:57.910Z,99824.13
2022-12-11T05:05:25.778Z,99827.88
2022-12-11T05:07:53.579Z,99828.09
2022-12-11T05:10:21.414Z,99833.13
2022-12-11T05:12:49.196Z,99827.25
2022-12-11T05:15:16.999Z,99825.94
2022-12-11T05:17:44.760Z,99823.59
2022-12-11T05:20:12.504Z,99818.34
2022-12-11T05:22:41.409Z,99818.56
2022-12-11T05:25:09.629Z,99819.41
2022-12-11T05:27:37.648Z,99817.72
2022-12-11T05:30:05.404Z,99810.97
2022-12-11T05:32:33.188Z,99809.50
2022-12-11T05:35:00.929Z,99803.47
2022-12-11T05:37:28.786Z,99800.34
2022-12-11T05:39:56.511Z,99804.75
2022-12-11T05:42:28.847Z,99798.28
2022-12-11T05:44:57.087Z,99800.59
2022-12-11T05:47:25.593Z,99801.59
2022-12-11T05:49:53.389Z,99809.63
2022-12-11T05:52:21.752Z,99811.16
2022-12-11T05:54:49.572Z,99812.19
2022-12-11T05:57:17.311Z,99810.72
2022-12-11T05:59:45.352Z,99808.63
2022-12-11T06:02:13.322Z,99811.06
2022-12-11T06:04:41.147Z,99806.31
2022-12-11T06:07:08.978Z,99810.59
2022-12-11T06:09:36.797Z,99813.41
2022-12-11T06:12:04.606Z,99815.19
2022-12-11T06:14:32.651Z,99809.72
2022-12-11T06:17:01.636Z,99814.44
2022-12-11T06:19:34.978Z,99800.19
2022-12-11T06:22:04.486Z,99807.16
2022-12-11T06:24:32.284Z,99803.31
2022-12-11T06:27:00.101Z,99794.28
2022-12-11T06:29:27.846Z,99796.06
2022-12-11T06:31:55.695Z,99786.38
2022-12-11T06:34:23.490Z,99792.13
2022-12-11T06:36:51.280Z,99790.50
2022-12-11T06:39:19.190Z,99791.63
2022-12-11T06:41:49.056Z,99787.66
2022-12-11T06:44:16.922Z,99784.25
2022-12-11T06:46:44.682Z,99788.97
2022-12-11T06:49:12.457Z,99781.06
2022-12-11T06:51:40.274Z,99787.31
2022-12-11T06:54:08.027Z,99785.06
2022-12-11T06:56:35.789Z,99792.66
2022-12-11T06:59:07.277Z,99793.69
2022-12-11T07:01:35.349Z,99805.69
2022-12-11T07:04:03.084Z,99800.16
2022-12-11T07:06:31.254Z,99800.59
2022-12-11T07:08:59.093Z,99805.84
2022-12-11T07:11:26.894Z,99802.84
2022-12-11T07:13:54.846Z,99800.63
2022-12-11T07:16:22.748Z,99799.94
2022-12-11T07:18:52.029Z,99800.69
2022-12-11T07:21:19.913Z,99800.88
2022-12-11T07:23:47.968Z,99797.22
2022-12-11T07:26:15.768Z,99807.97
2022-12-11T07:28:43.516Z,99820.28
2022-12-11T07:31:11.303Z,99817.09
2022-12-11T07:33:39.092Z,99828.00
2022-12-11T07:36:06.908Z,99827.69
2022-12-11T07:38:34.630Z,99824.84
2022-12-11T07:41:02.661Z,99823.16
2022-12-11T07:43:30.484Z,99818.38
2022-12-11T07:45:58.274Z,99820.84
2022-12-11T07:48:26.060Z,99820.63
2022-12-11T07:50:53.872Z,99811.88
2022-12-11T07:53:21.680Z,99813.28
2022-12-11T07:55:49.545Z,99819.47
2022-12-11T07:58:17.438Z,99818.28
2022-12-11T08:00:45.174Z,99828.78
2022-12-11T08:03:12.933Z,99833.66
2022-12-11T08:05:40.706Z,99834.44
2022-12-11T08:08:08.570Z,99842.53
2022-12-11T08:10:36.368Z,99836.75
2022-12-11T08:13:04.167Z,99838.44
2022-12-11T08:15:31.941Z,99833.91
2022-12-11T08:17:59.815Z,99826.72
2022-12-11T08:20:27.636Z,99828.59
2022-12-11T08:22:59.176Z,99828.34
2022-12-11T08:25:27.184Z,99831.22
2022-12-11T08:27:55.020Z,99834.47
2022-12-11T08:30:22.828Z,99825.13
2022-12-11T08:32:50.726Z,99821.97
2022-12-11T08:35:18.462Z,99819.16
2022-12-11T08:37:46.166Z,99818.97
2022-12-11T08:40:14.284Z,99821.06
2022-12-11T08:42:42.095Z,99825.72
2022-12-11T08:45:10.114Z,99818.41
2022-12-11T08:47:38.623Z,99820.38
2022-12-11T08:50:06.499Z,99811.53
2022-12-11T08:52:34.269Z,99815.38
2022-12-11T08:55:02.101Z,99816.50
2022-12-11T08:57:29.900Z,99816.63
2022-12-11T08:59:58.009Z,99825.59
2022-12-11T09:02:25.888Z,99829.84
2022-12-11T09:04:53.665Z,99818.75
2022-12-11T09:07:21.409Z,99824.94
2022-12-11T09:09:49.214Z,99833.03
2022-12-11T09:12:18.251Z,99828.75
2022-12-11T09:14:46.037Z,99828.53
2022-12-11T09:17:13.873Z,99824.47
2022-12-11T09:19:41.730Z,99826.81
2022-12-11T09:22:11.328Z,99830.00
2022-12-11T09:24:39.144Z,99820.94
2022-12-11T09:27:06.922Z,99827.41
2022-12-11T09:29:34.714Z,99820.84
2022-12-11T09:32:02.475Z,99816.72
2022-12-11T09:34:30.339Z,99823.19
2022-12-11T09:36:58.100Z,99815.91
2022-12-11T09:39:25.863Z,99817.22
2022-12-11T09:41:53.585Z,99824.47
2022-12-11T09:44:21.495Z,99815.88
2022-12-11T09:46:49.328Z,99818.69
2022-12-11T09:49:17.144Z,99810.94
2022-12-11T09:51:44.885Z,99819.84
2022-12-11T09:54:12.754Z,99815.44
2022-12-11T09:56:40.559Z,99808.72
2022-12-11T09:59:10.474Z,99809.38
2022-12-11T10:01:38.568Z,99811.50
2022-12-11T10:04:06.408Z,99803.09
2022-12-11T10:06:34.269Z,99807.34
2022-12-11T10:09:02.206Z,99802.72
2022-12-11T10:11:30.002Z,99796.00
2022-12-11T10:13:57.973Z,99798.75
2022-12-11T10:16:25.862Z,99794.97
2022-12-11T10:18:53.663Z,99798.34
2022-12-11T10:21:21.415Z,99797.50
2022-12-11T10:23:49.130Z,99798.97
2022-12-11T10:26:16.944Z,99791.81
2022-12-11T10:28:48.895Z,99800.44
2022-12-11T10:31:16.875Z,99801.88
2022-12-11T10:33:44.702Z,99800.66
2022-12-11T10:36:12.563Z,99800.63
2022-12-11T10:38:40.394Z,99799.59
2022-12-11T10:41:08.327Z,99803.34
2022-12-11T10:43:36.135Z,99803.78
2022-12-11T10:46:04.155Z,99798.09
2022-12-11T10:48:32.220Z,99798.53
2022-12-11T10:51:00.207Z,99799.34
2022-12-11T10:53:28.109Z,99793.66
2022-12-11T10:55:58.022Z,99795.75
2022-12-11T10:58:25.858Z,99791.78
2022-12-11T11:00:53.626Z,99785.91
2022-12-11T11:03:21.473Z,99787.16
2022-12-11T11:05:50.708Z,99777.69
2022-12-11T11:08:19.333Z,99777.69
2022-12-11T11:10:47.300Z,99771.81
2022-12-11T11:13:15.521Z,99772.00
2022-12-11T11:15:43.515Z,99775.13
2022-12-11T11:18:11.405Z,99766.09
2022-12-11T11:20:39.162Z,99767.13
2022-12-11T11:23:07.021Z,99765.25
2022-12-11T11:25:34.964Z,99759.19
2022-12-11T11:28:02.840Z,99753.09
2022-12-11T11:30:30.956Z,99755.81
2022-12-11T11:33:00.788Z,99766.94
2022-12-11T11:35:28.570Z,99761.03
2022-12-11T11:37:57.654Z,99760.22
2022-12-11T11:40:25.490Z,99757.91
2022-12-11T11:42:53.302Z,99756.41
2022-12-11T11:45:21.233Z,99755.78
2022-12-11T11:47:50.848Z,99751.81
2022-12-11T11:50:18.612Z,99753.06
2022-12-11T11:52:46.717Z,99745.50
2022-12-11T11:55:18.613Z,99741.53
2022-12-11T11:57:49.813Z,99733.75
2022-12-11T12:00:17.714Z,99735.00
2022-12-11T12:02:48.845Z,99737.72
2022-12-11T12:05:16.708Z,99730.38
2022-12-11T12:07:44.625Z,99734.16
2022-12-11T12:10:12.838Z,99724.09
2022-12-11T12:12:40.643Z,99729.97
2022-12-11T12:15:08.637Z,99730.97
2022-12-11T12:17:38.197Z,99732.03
2022-12-11T12:20:06.076Z,99733.28
2022-12-11T12:22:33.839Z,99727.84
2022-12-11T12:25:01.603Z,99728.25
2022-12-11T12:27:51.710Z,99727.38
2022-12-11T12:30:22.468Z,99727.34
2022-12-11T12:32:51.022Z,99734.69
2022-12-11T12:35:18.803Z,99728.78
2022-12-11T12:37:46.660Z,99730.25
2022-12-11T12:40:14.741Z,99730.91
2022-12-11T12:42:42.545Z,99725.44
2022-12-11T12:45:10.550Z,99726.84
2022-12-11T12:47:38.675Z,99732.50
2022-12-11T12:50:06.488Z,99731.22
2022-12-11T12:52:34.554Z,99727.84
2022-12-11T12:55:18.863Z,99720.38
2022-12-11T12:57:46.633Z,99716.28
2022-12-11T13:00:15.566Z,99720.06
2022-12-11T13:02:45.330Z,99727.78
2022-12-11T13:05:13.535Z,99719.03
2022-12-11T13:07:41.436Z,99704.66
2022-12-11T13:10:09.212Z,99714.06
2022-12-11T13:12:37.293Z,99714.50
2022-12-11T13:15:05.087Z,99702.38
2022-12-11T13:17:33.583Z,99701.47
2022-12-11T13:20:01.551Z,99702.03
2022-12-11T13:22:29.261Z,99699.44
2022-12-11T13:24:57.292Z,99704.06
2022-12-11T13:27:24.986Z,99704.31
2022-12-11T13:29:52.798Z,99689.88
2022-12-11T13:32:20.537Z,99693.84
2022-12-11T13:34:48.287Z,99693.50
2022-12-11T13:37:16.140Z,99697.78
2022-12-11T13:39:43.889Z,99695.78
2022-12-11T13:42:15.975Z,99704.00
2022-12-11T13:44:45.242Z,99692.84
2022-12-11T13:47:12.935Z,99696.34
2022-12-11T13:49:40.727Z,99695.44
2022-12-11T13:52:08.479Z,99691.06
2022-12-11T13:54:36.494Z,99695.69
2022-12-11T13:57:04.204Z,99688.00
2022-12-11T13:59:32.180Z,99683.50
2022-12-11T14:02:00.012Z,99689.50
2022-12-11T14:04:28.345Z,99688.94
2022-12-11T14:06:56.149Z,99690.41
2022-12-11T14:09:23.886Z,99704.00
2022-12-11T14:11:56.592Z,99699.69
2022-12-11T14:14:24.758Z,99696.75
2022-12-11T14:16:52.845Z,99708.03
2022-12-11T14:19:20.916Z,99704.81
2022-12-11T14:21:48.683Z,99699.34
2022-12-11T14:24:16.469Z,99702.69
2022-12-11T14:26:44.389Z,99699.59
2022-12-11T14:29:12.108Z,99698.22
2022-12-11T14:31:39.872Z,99698.03
2022-12-11T14:34:07.589Z,99701.31
2022-12-11T14:36:35.333Z,99702.44
2022-12-11T14:39:03.076Z,99709.75
2022-12-11T14:41:30.940Z,99706.81
2022-12-11T14:43:58.671Z,99710.44
2022-12-11T14:46:26.431Z,99707.28
2022-12-11T14:49:00.407Z,99708.41
2022-12-11T14:51:28.676Z,99706.63
2022-12-11T14:53:56.465Z,99714.19
2022-12-11T14:56:24.154Z,99710.59
2022-12-11T14:58:51.885Z,99704.00
2022-12-11T15:01:20.119Z,99711.31
2022-12-11T15:03:47.880Z,99713.41
2022-12-11T15:06:15.582Z,99702.28
2022-12-11T15:08:43.382Z,99715.84
2022-12-11T15:11:11.162Z,99714.03
2022-12-11T15:13:38.854Z,99714.91
2022-12-11T15:16:07.417Z,99720.00
2022-12-11T15:18:35.263Z,99707.34
2022-12-11T15:21:03.042Z,99715.06
2022-12-11T15:23:30.811Z,99716.47
2022-12-11T15:25:58.594Z,99711.28
2022-12-11T15:28:26.346Z,99719.47
2022-12-11T15:30:54.279Z,99722.69
2022-12-11T15:33:22.269Z,99712.66
2022-12-11T15:35:49.998Z,99716.03
2022-12-11T15:38:17.851Z,99721.22
2022-12-11T15:40:45.558Z,99721.56
2022-12-11T15:43:13.266Z,99722.19
2022-12-11T15:45:43.482Z,99731.06
2022-12-11T15:48:11.451Z,99727.22
2022-12-11T15:50:39.217Z,99724.34
2022-12-11T15:53:07.081Z,99720.56
2022-12-11T15:55:35.691Z,99736.41
2022-12-11T15:58:03.415Z,99738.13
2022-12-11T16:00:31.162Z,99747.91
2022-12-11T16:02:59.013Z,99755.03
2022-12-11T16:05:26.880Z,99745.22
2022-12-11T16:07:54.873Z,99749.91
2022-12-11T16:10:22.746Z,99754.09
2022-12-11T16:12:50.555Z,99758.72
2022-12-11T16:15:23.469Z,99753.59
2022-12-11T16:17:52.301Z,99749.69
2022-12-11T16:20:20.654Z,99743.06
2022-12-11T16:22:48.425Z,99737.94
2022-12-11T16:25:16.178Z,99733.56
2022-12-11T16:27:44.042Z,99737.22
2022-12-11T16:30:11.931Z,99736.13
2022-12-11T16:32:41.050Z,99738.16
2022-12-11T16:35:09.062Z,99738.22
2022-12-11T16:37:38.086Z,99735.13
2022-12-11T16:40:07.906Z,99735.16
2022-12-11T16:42:35.837Z,99735.44
2022-12-11T16:45:03.661Z,99729.25
2022-12-11T16:47:31.425Z,99732.94
2022-12-11T16:49:59.343Z,99727.69
2022-12-11T16:52:27.276Z,99726.19
2022-12-11T16:54:55.135Z,99726.84
2022-12-11T17:00:12.183Z,99723.47
2022-12-11T17:02:40.088Z,99720.28
2022-12-11T17:05:08.153Z,99721.44
2022-12-11T17:07:36.194Z,99716.75
2022-12-11T17:10:04.169Z,99720.19
2022-12-11T17:12:31.987Z,99722.38
2022-12-11T17:15:00.073Z,99727.41
2022-12-11T17:17:27.954Z,99717.50
2022-12-11T17:19:55.710Z,99726.47
2022-12-11T17:22:23.482Z,99725.97
2022-12-11T17:24:51.304Z,99727.34
2022-12-11T17:27:19.020Z,99732.06
2022-12-11T17:29:47.409Z,99727.13
2022-12-11T17:32:18.491Z,99728.44
2022-12-11T17:34:51.653Z,99718.56
2022-12-11T17:37:21.383Z,99736.16
2022-12-11T17:39:50.028Z,99729.53
2022-12-11T17:42:18.019Z,99736.28
2022-12-11T17:44:46.551Z,99727.97
2022-12-11T17:47:14.346Z,99733.94
2022-12-11T17:49:42.157Z,99734.97
2022-12-11T17:52:12.337Z,99740.16
2022-12-11T17:54:40.377Z,99746.44
2022-12-11T17:57:08.478Z,99751.22
2022-12-11T17:59:36.282Z,99755.50
2022-12-11T18:02:04.176Z,99753.97
2022-12-11T18:04:34.229Z,99749.84
2022-12-11T18:07:01.988Z,99749.06
2022-12-11T18:09:29.685Z,99743.75
2022-12-11T18:11:57.686Z,99748.88
2022-12-11T18:14:25.601Z,99749.06
2022-12-11T18:16:53.776Z,99738.19
2022-12-11T18:19:22.804Z,99748.44
2022-12-11T18:21:50.658Z,99743.41
2022-12-11T18:24:18.427Z,99742.50
2022-12-11T18:26:46.147Z,99740.88
2022-12-11T18:29:14.145Z,99740.13
2022-12-11T18:31:42.825Z,99737.38
2022-12-11T18:34:10.964Z,99738.63
2022-12-11T18:36:40.768Z,99733.56
2022-12-11T18:39:08.549Z,99739.69
2022-12-11T18:41:36.381Z,99743.56
2022-12-11T18:44:09.306Z,99740.66
2022-12-11T18:46:37.743Z,99740.47
2022-12-11T18:49:05.635Z,99734.44
2022-12-11T18:51:33.507Z,99733.69
2022-12-11T18:54:01.262Z,99736.69
2022-12-11T18:56:30.088Z,99734.19
2022-12-11T18:58:57.846Z,99730.66
2022-12-11T19:01:25.642Z,99737.91
2022-12-11T19:03:56.332Z,99733.03
2022-12-11T19:06:28.570Z,99727.06
2022-12-11T19:08:56.391Z,99726.81
2022-12-11T19:11:24.637Z,99728.34
2022-12-11T19:13:52.464Z,99728.28
2022-12-11T19:16:20.260Z,99742.56
2022-12-11T19:18:48.238Z,99740.09
2022-12-11T19:21:16.112Z,99740.09
2022-12-11T19:23:43.965Z,99735.63
2022-12-11T19:26:11.783Z,99741.97
2022-12-11T19:28:39.578Z,99739.13
2022-12-11T19:31:07.445Z,99748.94
2022-12-11T19:33:35.392Z,99739.09
2022-12-11T19:36:03.168Z,99744.25
2022-12-11T19:38:31.002Z,99740.34
2022-12-11T19:40:58.854Z,99737.91
2022-12-11T19:43:26.621Z,99736.97
2022-12-11T19:45:54.406Z,99737.63
2022-12-11T19:48:23.231Z,99738.53
2022-12-11T19:50:51.040Z,99746.53
2022-12-11T19:53:18.772Z,99740.06
2022-12-11T19:55:46.541Z,99742.03
2022-12-11T19:58:14.354Z,99740.19
2022-12-11T20:00:42.187Z,99736.13
2022-12-11T20:03:10.031Z,99732.13
2022-12-11T20:05:37.790Z,99730.06
2022-12-11T20:08:35.250Z,99728.03
2022-12-11T20:10:53.265Z,99736.41
2022-12-11T20:13:21.982Z,99743.41
2022-12-11T20:15:51.602Z,99731.84
2022-12-11T20:18:19.726Z,99729.84
2022-12-11T20:20:47.509Z,99725.75
2022-12-11T20:23:15.430Z,99736.38
2022-12-11T20:25:43.219Z,99725.75
2022-12-11T20:28:11.002Z,99733.84
2022-12-11T20:30:38.982Z,99731.91
2022-12-11T20:33:06.832Z,99729.53
2022-12-11T20:35:34.666Z,99732.06
2022-12-11T20:38:02.481Z,99734.53
2022-12-11T20:40:30.228Z,99731.59
2022-12-11T20:42:58.240Z,99728.09
2022-12-11T20:45:26.044Z,99728.81
2022-12-11T20:47:53.936Z,99726.56
2022-12-11T20:50:21.721Z,99725.72
2022-12-11T20:52:49.529Z,99722.78
2022-12-11T20:55:17.295Z,99722.94
2022-12-11T20:57:45.541Z,99722.72
2022-12-11T21:00:13.313Z,99720.56
2022-12-11T21:02:41.148Z,99726.81
2022-12-11T21:05:09.545Z,99721.00
2022-12-11T21:07:37.580Z,99726.13
2022-12-11T21:10:05.415Z,99723.50
2022-12-11T21:12:33.167Z,99720.41
2022-12-11T21:15:00.966Z,99723.03
2022-12-11T21:17:28.715Z,99722.41
2022-12-11T21:19:56.489Z,99718.69
2022-12-11T21:22:24.443Z,99720.41
2022-12-11T21:24:52.239Z,99722.97
2022-12-11T21:27:24.418Z,99724.44
2022-12-11T21:29:52.458Z,99728.47
2022-12-11T21:32:20.197Z,99726.00
2022-12-11T21:34:47.986Z,99724.09
2022-12-11T21:37:15.861Z,99725.59
2022-12-11T21:39:43.666Z,99722.03
2022-12-11T21:42:11.473Z,99725.22
2022-12-11T21:47:27.784Z,99713.44
2022-12-11T21:49:55.657Z,99721.63
2022-12-11T21:52:23.502Z,99717.88
2022-12-11T21:54:51.319Z,99720.41
2022-12-11T21:57:25.865Z,99709.06
2022-12-11T21:59:54.205Z,99715.16
2022-12-11T22:02:22.348Z,99715.78
2022-12-11T22:04:50.130Z,99724.63
2022-12-11T22:07:17.849Z,99720.63
2022-12-11T22:09:45.580Z,99722.72
2022-12-11T22:12:13.275Z,99716.66
2022-12-11T22:14:41.063Z,99712.66
2022-12-11T22:17:08.853Z,99718.53
2022-12-11T22:19:36.567Z,99727.75
2022-12-11T22:22:04.269Z,99726.09
2022-12-11T22:24:32.313Z,99714.34
2022-12-11T22:27:00.093Z,99720.22
2022-12-11T22:29:27.817Z,99722.09
2022-12-11T22:31:55.577Z,99711.41
2022-12-11T22:34:23.385Z,99709.69
2022-12-11T22:36:51.213Z,99711.59
2022-12-11T22:39:18.985Z,99708.03
2022-12-11T22:41:46.706Z,99709.28
2022-12-11T22:44:14.419Z,99719.56
2022-12-11T22:46:45.432Z,99717.88
2022-12-11T22:49:17.334Z,99715.16
2022-12-11T22:51:45.135Z,99713.69
2022-12-11T22:54:12.925Z,99723.78
2022-12-11T22:56:40.668Z,99724.81
2022-12-11T22:59:08.643Z,99719.16
2022-12-11T23:01:36.456Z,99727.53
2022-12-11T23:04:04.181Z,99721.25
2022-12-11T23:06:32.057Z,99725.88
2022-12-11T23:08:59.902Z,99726.69
2022-12-11T23:11:27.807Z,99728.59
2022-12-11T23:13:55.698Z,99731.50
2022-12-11T23:16:23.709Z,99725.44
2022-12-11T23:18:51.526Z,99723.97
2022-12-11T23:21:19.555Z,99724.59
2022-12-11T23:23:47.321Z,99728.38
2022-12-11T23:26:15.267Z,99723.31
2022-12-11T23:28:43.066Z,99730.44
2022-12-11T23:31:10.858Z,99730.44
2022-12-11T23:33:38.662Z,99724.97
2022-12-11T23:36:06.427Z,99726.69
2022-12-11T23:38:34.238Z,99729.78
2022-12-11T23:41:02.052Z,99732.75
2022-12-11T23:43:29.941Z,99731.91
2022-12-11T23:45:57.849Z,99732.94
2022-12-11T23:48:25.758Z,99732.28
2022-12-11T23:50:53.486Z,99729.56
2022-12-11T23:53:21.385Z,99726.84
2022-12-11T23:55:49.136Z,99726.84
2022-12-11T23:58:17.039Z,99724.97
